Kittery Point, ME (03905)

7:18 PM EDT on August 29, 2016 (GMT -0400)
KPV | | Change Station

Elev 40 ft 43.08 °N, 70.71 °W | Updated 21 seconds ago

Partly Cloudy
Partly Cloudy
73.9 °F
Feels Like 77 °F
N
2.4
Wind Variable Wind from NNW
Gusts 6.0 mph

Today
High -- | Low -- °F
--% Chance of Precip.
Yesterday
High -- | Low -- °F
Precip. -- in
Pressure 30.08 in
Visibility 10.0 miles
Clouds Few 6000 ft
Heat Index 77 °F
Dew Point 54 °F
Humidity 49%
Rainfall Not available.
Snow Depth Not available.
6:04 AM 7:21 PM
Waning Crescent, 6% visible
METAR KPSM 292258Z 31015KT 10SM FEW060 24/12 A3007 RMK AO2A SLP184 T02430121
Pressure 30.08 in
Visibility 10.0 miles
Clouds Few 6000 ft
Heat Index 77 °F
Dew Point 54 °F
Humidity 49%
Rainfall Not available.
Snow Depth Not available.
6:04 AM 7:21 PM
Waning Crescent, 6% visible
METAR KPSM 292258Z 31015KT 10SM FEW060 24/12 A3007 RMK AO2A SLP184 T02430121

10-Day Weather Forecast

Almanac

Astronomy

Aug. 29, 2016 Rise Set
Actual Time
Civil Twilight
Nautical Twilight
Astronomical Twilight
Moon
Length of Visible Light
Length of Day
Tomorrow will be .
, % of the Moon is Illuminated

Today's Extremes

State Highs State Lows

Community

WunderPhotos

Upload Photos

1,935,692 photos uploaded!

WunderBlog® & News

Nearby

Air Quality

  Air Quality AQ Index Pollutant
Not available.

Snow Depth

Station Depth Elevation

Earthquake Activity

City Distance Mag. Time & Date
Minimum magnitude displayed is 2.5.

Coastal Water Temperatures

Place Temperature

Stations

Nearby Weather Stations

Station Location Temp. Windchill Dew Point Humidity Wind Precip. Elev Updated Type
                   

Watches & Warnings

There are currently no watches in effect.